Latest Weather Observations for Pirlangimpi

IDD60901

Issued at 12:11 pm CST Sunday 26 April 2015 (issued every 10 minutes, with the page automatically refreshed every 10 minutes)

About weather observations | Map of Darwin area stations | Latest observations for Darwin area | Other Formats
Station Details ID: 014142 Name: PIRLANGIMPI AIRPORT Lat: -11.40 Lon: 130.42 Height: 18.3 m
Data from the previous 72 hours. | See also: Recent months at Pirlangimpi
Date/Time
CST
Tmp

°C
App
Tmp
°C
Dew
Point
°C
Rel
Hum
%
Delta-T

°C
Wind Press
QNH
hPa
Press
MSL
hPa
Rain
since
9 am
mm
Dir
 
Spd
km/h
Gust
km/h
Spd
kts
Gust
kts
26/12:00pm 31.5 32.7 19.8 49 7.7 ESE 13 20 7 11 1012.3 1012.2 0.0
26/11:30am 30.8 32.5 20.1 53 7.1 E 11 20 6 11 1012.6 1012.5 0.0
26/11:00am 30.3 32.9 21.9 60 5.7 E 11 17 6 9 1013.0 1012.9 0.0
26/10:30am 29.3 32.2 21.8 64 5.0 ESE 9 17 5 9 1013.1 1013.0 0.0
26/10:00am 29.3 33.3 22.8 68 4.4 E 6 9 3 5 1013.0 1012.9 0.0
26/09:30am 28.2 31.7 22.9 73 3.6 E 9 13 5 7 1012.9 1012.8 0.0
26/09:00am 26.7 30.3 23.0 80 2.5 E 9 13 5 7 1012.5 1012.4 0.2
26/08:30am 25.5 29.4 23.0 86 1.7 E 7 11 4 6 1012.2 1012.1 0.2
26/08:00am 24.3 28.4 23.3 94 0.7 E 7 9 4 5 1012.0 1011.9 0.2
26/07:30am 22.6 25.9 21.9 96 0.5 ENE 7 9 4 5 1011.9 1011.8 0.2
26/07:00am 22.1 25.0 21.1 94 0.7 ENE 7 9 4 5 1011.5 1011.4 0.2
26/06:30am 22.4 25.4 21.2 93 0.8 ENE 7 11 4 6 1011.2 1011.1 0.2
26/06:00am 22.6 26.0 21.6 94 0.7 E 6 9 3 5 1011.2 1011.1 0.2
26/05:30am 23.0 27.0 22.0 94 0.7 ENE 4 6 2 3 1011.0 1010.9 0.2
26/05:00am 23.2 28.0 22.2 94 0.7 CALM 0 4 0 2 1010.9 1010.8 0.2
26/04:30am 23.4 28.3 22.4 94 0.7 CALM 0 0 0 0 1010.9 1010.8 0.2
26/04:00am 23.7 28.7 22.5 93 0.8 CALM 0 0 0 0 1011.1 1011.0 0.2
26/03:30am 24.1 29.4 23.1 94 0.7 CALM 0 0 0 0 1011.1 1011.0 0.2
26/03:00am 24.6 29.6 23.9 96 0.5 SE 4 4 2 2 1011.1 1011.0 0.2
26/02:30am 24.6 29.3 23.9 96 0.5 SE 6 7 3 4 1011.2 1011.1 0.2
26/02:00am 23.9 28.8 23.0 95 0.6 SE 2 4 1 2 1011.5 1011.4 0.2
26/01:30am 23.6 28.3 22.6 94 0.7 E 2 4 1 2 1011.6 1011.5 0.2
26/01:00am 23.6 28.4 22.2 92 0.9 CALM 0 0 0 0 1011.9 1011.8 0.2
26/12:30am 23.7 28.7 22.5 93 0.8 CALM 0 0 0 0 1011.9 1011.8 0.2
26/12:00am 23.9 28.6 22.7 93 0.8 NE 2 2 1 1 1011.7 1011.6 0.2
 
Date/Time
CST
Tmp

°C
App
Tmp
°C
Dew
Point
°C
Rel
Hum
%
Delta-T

°C
Wind Press
QNH
hPa
Press
MSL
hPa
Rain
since
9 am
mm
Dir
 
Spd
km/h
Gust
km/h
Spd
kts
Gust
kts
25/11:30pm 24.0 28.8 22.8 93 0.8 NE 2 4 1 2 1011.4 1011.3 0.2
25/11:00pm 24.2 29.5 23.0 93 0.8 CALM 0 0 0 0 1011.6 1011.5 0.2
25/10:30pm 24.3 29.5 22.9 92 0.9 CALM 0 0 0 0 1011.7 1011.6 0.2
25/10:00pm 24.4 29.7 23.0 92 0.9 CALM 0 0 0 0 1011.7 1011.6 0.2
25/09:30pm 24.6 29.9 23.0 91 1.1 CALM 0 0 0 0 1011.6 1011.5 0.2
25/09:00pm 24.6 29.8 22.8 90 1.2 CALM 0 0 0 0 1011.5 1011.4 0.2
25/08:30pm 24.6 29.7 22.7 89 1.3 CALM 0 0 0 0 1011.4 1011.3 0.2
25/08:00pm 25.1 30.4 23.0 88 1.4 CALM 0 0 0 0 1011.0 1010.9 0.2
25/07:30pm 25.7 31.0 23.0 85 1.8 CALM 0 0 0 0 1010.6 1010.5 0.2
25/07:00pm 26.5 31.8 23.0 81 2.4 CALM 0 0 0 0 1010.3 1010.2 0.2
25/06:30pm 27.8 32.4 23.2 76 3.1 ENE 4 6 2 3 1009.7 1009.6 0.2
25/06:00pm 28.8 34.0 23.5 73 3.6 NNE 2 6 1 3 1009.3 1009.2 0.2
25/05:30pm 30.4 34.5 23.3 66 4.9 NE 7 11 4 6 1008.9 1008.8 0.2
25/05:00pm 31.5 34.7 23.1 61 5.8 ENE 11 17 6 9 1008.6 1008.5 0.2
25/04:30pm 31.9 36.1 23.4 60 5.9 NNE 7 13 4 7 1008.5 1008.4 0.2
25/04:00pm 32.7 37.5 24.2 61 5.9 NNE 6 13 3 7 1008.2 1008.1 0.2
25/03:30pm 32.8 37.5 24.0 60 6.2 NNE 6 11 3 6 1008.2 1008.1 0.2
25/03:00pm 33.1 37.5 23.4 56 6.7 NNE 6 13 3 7 1008.4 1008.3 0.2
25/02:30pm 33.3 37.1 22.7 53 7.3 NNE 7 15 4 8 1008.7 1008.6 0.2
25/02:00pm 33.1 36.9 22.8 54 7.1 NE 7 17 4 9 1009.2 1009.1 0.2
25/01:30pm 33.2 37.4 23.5 56 6.7 NE 7 17 4 9 1009.5 1009.4 0.2
25/01:00pm 32.7 36.8 23.3 57 6.5 NE 7 17 4 9 1009.7 1009.6 0.2
25/12:30pm 32.5 36.1 23.7 59 6.1 NE 11 20 6 11 1010.1 1010.0 0.2
25/12:00pm 31.8 36.7 24.7 66 5.0 ENE 7 13 4 7 1010.3 1010.2 0.0
25/11:30am 30.3 34.4 23.2 65 4.9 E 7 11 4 6 1010.8 1010.7 0.0
25/11:00am 31.7 37.1 25.1 68 4.7 E 6 11 3 6 1011.1 1011.0 0.0
25/10:30am 30.6 37.1 25.7 75 3.5 E 2 6 1 3 1011.4 1011.3 0.0
25/10:00am 30.3 36.5 25.8 77 3.2 E 4 9 2 5 1011.4 1011.3 0.0
25/09:30am 29.1 35.1 24.9 78 2.9 ENE 2 6 1 3 1011.2 1011.1 0.0
25/09:00am 27.6 33.8 25.8 90 1.3 ESE 4 6 2 3 1010.7 1010.6 1.6
25/08:30am 26.3 32.4 25.6 96 0.5 ESE 4 4 2 2 1010.5 1010.4 1.6
25/08:00am 25.3 31.6 24.8 97 0.3 CALM 0 2 0 1 1010.4 1010.3 1.6
25/07:30am 24.1 29.6 23.4 96 0.5 CALM 0 0 0 0 1010.2 1010.1 1.6
25/07:00am 23.8 29.1 23.0 95 0.5 CALM 0 0 0 0 1010.1 1010.0 1.6
25/06:30am 23.9 29.2 23.0 95 0.6 CALM 0 0 0 0 1009.7 1009.6 1.6
25/06:00am 23.9 29.1 22.9 94 0.7 CALM 0 0 0 0 1009.5 1009.4 1.6
25/05:30am 24.0 29.3 23.0 94 0.7 CALM 0 0 0 0 1009.5 1009.4 1.6
25/05:00am 24.1 29.4 23.1 94 0.7 CALM 0 0 0 0 1009.5 1009.4 1.6
25/04:30am 24.1 29.4 23.1 94 0.7 CALM 0 0 0 0 1009.5 1009.4 1.6
25/04:00am 24.2 29.6 23.2 94 0.7 CALM 0 0 0 0 1009.7 1009.6 1.6
25/03:30am 24.2 29.6 23.2 94 0.7 CALM 0 2 0 1 1009.8 1009.7 1.6
25/03:00am 24.4 30.0 23.5 95 0.6 CALM 0 0 0 0 1009.8 1009.7 1.6
25/02:30am 24.5 30.1 23.5 94 0.7 CALM 0 0 0 0 1010.0 1009.9 1.6
25/02:00am 24.6 30.2 23.6 94 0.7 CALM 0 0 0 0 1010.1 1010.0 1.6
25/01:30am 24.7 30.4 23.7 94 0.7 CALM 0 0 0 0 1010.2 1010.1 1.6
25/01:00am 24.8 30.5 23.8 94 0.7 CALM 0 0 0 0 1010.7 1010.6 1.6
25/12:30am 24.7 30.3 23.5 93 0.8 CALM 0 0 0 0 1010.7 1010.6 1.6
25/12:00am 24.7 30.3 23.5 93 0.8 CALM 0 0 0 0 1010.6 1010.5 1.6
 
Date/Time
CST
Tmp

°C
App
Tmp
°C
Dew
Point
°C
Rel
Hum
%
Delta-T

°C
Wind Press
QNH
hPa
Press
MSL
hPa
Rain
since
9 am
mm
Dir
 
Spd
km/h
Gust
km/h
Spd
kts
Gust
kts
24/11:30pm 24.6 30.1 23.4 93 0.8 CALM 0 0 0 0 1010.8 1010.7 1.6
24/11:00pm 24.8 30.4 23.6 93 0.8 CALM 0 0 0 0 1010.9 1010.8 1.6
24/10:30pm 24.9 30.6 23.7 93 0.8 CALM 0 0 0 0 1011.1 1011.0 1.6
24/10:00pm 24.9 30.6 23.7 93 0.8 CALM 0 0 0 0 1011.2 1011.1 1.6
24/09:30pm 25.1 30.5 23.3 90 1.2 CALM 0 0 0 0 1011.3 1011.2 1.6
24/09:00pm 25.6 31.4 24.0 91 1.1 CALM 0 0 0 0 1011.2 1011.1 1.6
24/08:30pm 26.1 32.0 24.1 89 1.4 CALM 0 0 0 0 1010.7 1010.6 1.6
24/08:00pm 26.6 31.9 25.0 91 1.1 ENE 6 7 3 4 1010.4 1010.3 1.6
24/07:30pm 26.9 33.0 25.1 90 1.3 NE 2 4 1 2 1009.8 1009.7 1.6
24/07:00pm 27.2 33.9 25.4 90 1.3 CALM 0 2 0 1 1009.6 1009.5 1.6
24/06:30pm 27.2 33.7 25.0 88 1.5 CALM 0 0 0 0 1009.1 1009.0 1.6
24/06:00pm 27.5 33.6 25.1 87 1.7 WNW 2 4 1 2 1009.0 1008.9 1.6
24/05:30pm 27.0 32.9 25.4 91 1.1 N 4 6 2 3 1008.4 1008.3 1.6
24/05:00pm 26.9 32.4 24.7 88 1.5 NE 4 6 2 3 1008.2 1008.1 1.6
24/04:30pm 28.4 33.3 24.4 79 2.8 NE 6 13 3 7 1008.0 1007.9 0.2
24/04:00pm 28.4 33.3 24.4 79 2.8 NNW 6 9 3 5 1008.0 1007.9 0.2
24/03:30pm 30.0 35.4 23.9 70 4.2 N 2 6 1 3 1007.9 1007.8 0.2
24/03:00pm 32.2 37.8 24.3 63 5.5 NW 2 9 1 5 1007.9 1007.8 0.2
24/02:30pm 32.7 37.6 23.1 57 6.6 NNE 2 6 1 3 1008.1 1008.0 0.2
24/02:00pm 34.4 38.4 22.8 51 8.0 E 6 7 3 4 1008.5 1008.4 0.2
24/01:30pm 34.2 38.1 22.9 51 7.8 NE 7 13 4 7 1008.8 1008.7 0.2
24/01:00pm 33.3 37.2 21.8 51 7.8 ENE 4 7 2 4 1009.2 1009.1 0.2
24/12:30pm 33.4 36.7 21.9 51 7.8 ESE 7 15 4 8 1009.7 1009.6 0.2
24/12:00pm 32.8 35.8 22.0 53 7.4 E 9 19 5 10 1010.0 1009.9 0.2
24/11:30am 32.8 36.3 22.9 56 6.8 E 9 13 5 7 1010.6 1010.5 0.2
24/11:00am 32.6 36.8 23.5 58 6.3 ENE 7 11 4 6 1010.9 1010.8 0.2
24/10:30am 31.4 35.9 24.0 65 5.2 ESE 7 9 4 5 1010.9 1010.8 0.0
24/10:00am 31.0 34.5 23.6 64 5.1 ENE 11 15 6 8 1010.9 1010.8 0.0
24/09:30am 30.0 35.8 25.1 75 3.5 SE 4 7 2 4 1011.0 1010.9 0.0
24/09:00am 28.6 34.4 25.2 82 2.4 SSE 4 7 2 4 1011.0 1010.9 1.4
24/08:30am 27.5 32.9 25.1 87 1.7 SE 6 7 3 4 1011.0 1010.9 1.4
24/08:00am 26.3 31.8 24.7 91 1.1 SE 4 7 2 4 1010.7 1010.6 1.4
24/07:30am 25.4 30.7 24.4 94 0.7 SE 4 6 2 3 1010.3 1010.2 1.4
24/07:00am 25.2 30.4 24.2 94 0.7 ESE 4 6 2 3 1010.2 1010.1 1.4
24/06:30am 25.3 31.2 24.1 93 0.8 CALM 0 0 0 0 1009.8 1009.7 1.4
24/06:00am 25.5 31.7 24.6 95 0.6 CALM 0 0 0 0 1009.6 1009.5 1.4
24/05:30am 25.7 32.0 24.7 94 0.7 CALM 0 0 0 0 1009.5 1009.4 1.4
24/05:00am 25.9 32.3 24.9 94 0.7 CALM 0 0 0 0 1009.3 1009.2 1.4
24/04:30am 25.8 31.8 24.8 94 0.7 NE 2 4 1 2 1009.3 1009.2 1.4
24/04:00am 25.9 31.6 25.0 95 0.6 E 4 4 2 2 1009.4 1009.3 1.4
24/03:30am 25.8 31.4 24.9 95 0.6 SSE 4 6 2 3 1009.8 1009.7 1.4
24/03:00am 25.6 31.8 24.6 94 0.7 CALM 0 0 0 0 1009.8 1009.7 1.4
24/02:30am 25.7 32.0 24.7 94 0.7 CALM 0 2 0 1 1009.9 1009.8 1.4
24/02:00am 25.7 31.2 24.7 94 0.7 S 4 6 2 3 1010.0 1009.9 1.4
24/01:30am 25.6 31.7 24.4 93 0.8 CALM 0 0 0 0 1010.1 1010.0 1.4
24/01:00am 25.7 31.5 24.5 93 0.8 NE 2 2 1 1 1010.2 1010.1 1.4
24/12:30am 25.8 31.3 24.6 93 0.8 NE 4 6 2 3 1010.4 1010.3 1.4
24/12:00am 25.9 32.2 24.7 93 0.8 CALM 0 0 0 0 1010.7 1010.6 1.4
 
Date/Time
CST
Tmp

°C
App
Tmp
°C
Dew
Point
°C
Rel
Hum
%
Delta-T

°C
Wind Press
QNH
hPa
Press
MSL
hPa
Rain
since
9 am
mm
Dir
 
Spd
km/h
Gust
km/h
Spd
kts
Gust
kts
23/11:30pm 26.1 32.4 24.7 92 1.0 CALM 0 0 0 0 1010.9 1010.8 1.4
23/11:00pm 26.2 32.3 25.0 93 0.8 SE 2 4 1 2 1011.0 1010.9 1.4
23/10:30pm 26.2 32.7 25.0 93 0.8 CALM 0 4 0 2 1011.2 1011.1 1.4
23/10:00pm 26.2 32.3 25.0 93 0.8 ESE 2 4 1 2 1011.2 1011.1 1.4
23/09:30pm 26.1 32.5 24.9 93 0.8 CALM 0 0 0 0 1010.8 1010.7 1.4
23/09:00pm 26.1 32.4 24.7 92 1.0 CALM 0 0 0 0 1010.7 1010.6 1.4
23/08:30pm 26.2 32.4 24.6 91 1.1 CALM 0 0 0 0 1010.6 1010.5 1.4
23/08:00pm 26.5 32.5 24.9 91 1.1 S 2 6 1 3 1010.2 1010.1 1.4
23/07:30pm 26.4 32.6 24.6 90 1.3 CALM 0 0 0 0 1009.5 1009.4 1.4
23/07:00pm 26.6 32.7 24.4 88 1.5 CALM 0 2 0 1 1009.2 1009.1 1.4
23/06:30pm 27.2 32.7 24.7 86 1.7 ENE 4 6 2 3 1008.9 1008.8 1.4
23/06:00pm 27.6 33.2 24.8 85 2.0 NNE 4 6 2 3 1008.9 1008.8 1.4
23/05:30pm 27.8 33.4 24.8 84 2.1 NNE 4 6 2 3 1009.0 1008.9 1.4
23/05:00pm 28.1 34.0 25.3 85 2.0 N 4 6 2 3 1008.9 1008.8 1.4
23/04:30pm 28.7 35.6 25.7 84 2.1 CALM 0 2 0 1 1008.6 1008.5 1.4
23/04:00pm 28.5 33.6 25.5 84 2.1 ENE 9 19 5 10 1008.0 1007.9 1.4
23/03:30pm 27.9 33.5 25.5 87 1.7 SE 6 9 3 5 1008.1 1008.0 1.4
23/03:00pm 28.7 32.0 23.8 75 3.4 E 13 19 7 10 1008.0 1007.9 0.4
23/02:30pm 31.1 34.5 24.0 66 4.9 NE 13 22 7 12 1008.1 1008.0 0.2
23/02:00pm 33.6 37.5 24.8 60 6.2 ENE 13 20 7 11 1008.3 1008.2 0.2
23/01:30pm 33.5 37.3 24.1 58 6.6 NE 11 24 6 13 1008.8 1008.7 0.2
23/01:00pm 33.0 37.9 24.7 61 5.8 NE 7 15 4 8 1009.1 1009.0 0.2
23/12:30pm 32.9 37.7 25.7 66 5.1 ENE 11 17 6 9 1009.6 1009.5 0.2

Latest Capital City Observations: Canberra | Sydney | Melbourne | Brisbane | Adelaide | Perth | Hobart | Darwin

Other Formats:

Comma delimited format used in spreadsheet applications
http://www.bom.gov.au/fwo/IDD60901/IDD60901.94119.axf

JavaScript Object Notation format (JSON) in row-major order
http://www.bom.gov.au/fwo/IDD60901/IDD60901.94119.json